sensor_id;sensor_type;location;lat;lon;timestamp;temperature;humidity
23114;DHT22;11726;50.122;8.832;2024-01-15T00:02:01;-1.30;99.90
23114;DHT22;11726;50.122;8.832;2024-01-15T00:04:29;-1.30;99.90
23114;DHT22;11726;50.122;8.832;2024-01-15T00:06:56;-1.30;99.90
23114;DHT22;11726;50.122;8.832;2024-01-15T00:09:23;-1.30;99.90
23114;DHT22;11726;50.122;8.832;2024-01-15T00:11:50;-1.30;99.90
23114;DHT22;11726;50.122;8.832;2024-01-15T00:14:16;-1.30;99.90
23114;DHT22;11726;50.122;8.832;2024-01-15T00:16:47;-1.30;99.90
23114;DHT22;11726;50.122;8.832;2024-01-15T00:19:16;-1.30;99.90
23114;DHT22;11726;50.122;8.832;2024-01-15T00:21:43;-1.30;99.90
23114;DHT22;11726;50.122;8.832;2024-01-15T00:24:10;-1.30;99.90
23114;DHT22;11726;50.122;8.832;2024-01-15T00:26:37;-1.40;99.90
23114;DHT22;11726;50.122;8.832;2024-01-15T00:29:03;-1.40;99.90
23114;DHT22;11726;50.122;8.832;2024-01-15T00:31:30;-1.40;99.90
23114;DHT22;11726;50.122;8.832;2024-01-15T00:33:57;-1.40;99.90
23114;DHT22;11726;50.122;8.832;2024-01-15T00:36:26;-1.50;99.90
23114;DHT22;11726;50.122;8.832;2024-01-15T00:38:53;-1.50;99.90
23114;DHT22;11726;50.122;8.832;2024-01-15T00:41:20;-1.50;99.90
23114;DHT22;11726;50.122;8.832;2024-01-15T00:43:48;-1.50;99.90
23114;DHT22;11726;50.122;8.832;2024-01-15T00:46:15;-1.40;99.90
23114;DHT22;11726;50.122;8.832;2024-01-15T00:48:42;-1.40;99.90
23114;DHT22;11726;50.122;8.832;2024-01-15T00:51:09;-1.50;99.90
23114;DHT22;11726;50.122;8.832;2024-01-15T00:53:36;-1.40;99.90
23114;DHT22;11726;50.122;8.832;2024-01-15T00:56:02;-1.50;99.90
23114;DHT22;11726;50.122;8.832;2024-01-15T00:58:29;-1.40;99.90
23114;DHT22;11726;50.122;8.832;2024-01-15T01:00:56;-1.50;99.90
23114;DHT22;11726;50.122;8.832;2024-01-15T01:03:23;-1.40;99.90
23114;DHT22;11726;50.122;8.832;2024-01-15T01:05:50;-1.40;99.90
23114;DHT22;11726;50.122;8.832;2024-01-15T01:08:17;-1.40;99.90
23114;DHT22;11726;50.122;8.832;2024-01-15T01:10:43;-1.40;99.90
23114;DHT22;11726;50.122;8.832;2024-01-15T01:13:10;-1.40;99.90
23114;DHT22;11726;50.122;8.832;2024-01-15T01:15:37;-1.50;99.90
23114;DHT22;11726;50.122;8.832;2024-01-15T01:18:05;-1.50;99.90
23114;DHT22;11726;50.122;8.832;2024-01-15T01:20:32;-1.50;99.90
23114;DHT22;11726;50.122;8.832;2024-01-15T01:22:59;-1.40;99.90
23114;DHT22;11726;50.122;8.832;2024-01-15T01:25:26;-1.40;99.90
23114;DHT22;11726;50.122;8.832;2024-01-15T01:27:53;-1.50;99.90
23114;DHT22;11726;50.122;8.832;2024-01-15T01:30:20;-1.40;99.90
23114;DHT22;11726;50.122;8.832;2024-01-15T01:32:47;-1.50;99.90
23114;DHT22;11726;50.122;8.832;2024-01-15T01:35:13;-1.50;99.90
23114;DHT22;11726;50.122;8.832;2024-01-15T01:37:40;-1.60;99.90
23114;DHT22;11726;50.122;8.832;2024-01-15T01:40:07;-1.40;99.90
23114;DHT22;11726;50.122;8.832;2024-01-15T01:42:34;-1.40;99.90
23114;DHT22;11726;50.122;8.832;2024-01-15T01:45:01;-1.40;99.90
23114;DHT22;11726;50.122;8.832;2024-01-15T01:47:28;-1.40;99.90
23114;DHT22;11726;50.122;8.832;2024-01-15T01:49:55;-1.50;99.90
23114;DHT22;11726;50.122;8.832;2024-01-15T01:52:22;-1.40;99.90
23114;DHT22;11726;50.122;8.832;2024-01-15T01:54:49;-1.40;99.90
23114;DHT22;11726;50.122;8.832;2024-01-15T01:57:17;-1.40;99.90
23114;DHT22;11726;50.122;8.832;2024-01-15T01:59:44;-1.40;99.90
23114;DHT22;11726;50.122;8.832;2024-01-15T02:02:12;-1.40;99.90
23114;DHT22;11726;50.122;8.832;2024-01-15T02:04:39;-1.40;99.90
23114;DHT22;11726;50.122;8.832;2024-01-15T02:07:06;-1.30;99.90
23114;DHT22;11726;50.122;8.832;2024-01-15T02:09:33;-1.40;99.90
23114;DHT22;11726;50.122;8.832;2024-01-15T02:12:00;-1.40;99.90
23114;DHT22;11726;50.122;8.832;2024-01-15T02:14:27;-1.40;99.90
23114;DHT22;11726;50.122;8.832;2024-01-15T02:16:53;-1.30;99.90
23114;DHT22;11726;50.122;8.832;2024-01-15T02:19:20;-1.20;99.90
23114;DHT22;11726;50.122;8.832;2024-01-15T02:21:47;-1.30;99.90
23114;DHT22;11726;50.122;8.832;2024-01-15T02:24:14;-1.20;99.90
23114;DHT22;11726;50.122;8.832;2024-01-15T02:26:41;-1.30;99.90
23114;DHT22;11726;50.122;8.832;2024-01-15T02:29:08;-1.30;99.90
23114;DHT22;11726;50.122;8.832;2024-01-15T02:31:36;-1.20;99.90
23114;DHT22;11726;50.122;8.832;2024-01-15T02:34:03;-1.20;99.90
23114;DHT22;11726;50.122;8.832;2024-01-15T02:36:30;-1.20;99.90
23114;DHT22;11726;50.122;8.832;2024-01-15T02:38:57;-1.10;99.90
23114;DHT22;11726;50.122;8.832;2024-01-15T02:41:23;-1.10;99.90
23114;DHT22;11726;50.122;8.832;2024-01-15T02:43:50;-1.10;99.90
23114;DHT22;11726;50.122;8.832;2024-01-15T02:46:17;-1.10;99.90
23114;DHT22;11726;50.122;8.832;2024-01-15T02:48:44;-1.10;99.90
23114;DHT22;11726;50.122;8.832;2024-01-15T02:51:11;-1.00;99.90
23114;DHT22;11726;50.122;8.832;2024-01-15T02:53:38;-1.00;99.90
23114;DHT22;11726;50.122;8.832;2024-01-15T02:56:07;-1.00;99.90
23114;DHT22;11726;50.122;8.832;2024-01-15T02:58:34;-1.10;99.90
23114;DHT22;11726;50.122;8.832;2024-01-15T03:01:00;-1.00;99.90
23114;DHT22;11726;50.122;8.832;2024-01-15T03:03:27;-1.10;99.90
23114;DHT22;11726;50.122;8.832;2024-01-15T03:05:55;-1.00;99.90
23114;DHT22;11726;50.122;8.832;2024-01-15T03:08:21;-1.10;99.90
23114;DHT22;11726;50.122;8.832;2024-01-15T03:10:49;-1.20;99.90
23114;DHT22;11726;50.122;8.832;2024-01-15T03:13:16;-1.20;99.90
23114;DHT22;11726;50.122;8.832;2024-01-15T03:15:43;-1.20;99.90
23114;DHT22;11726;50.122;8.832;2024-01-15T03:18:10;-1.10;99.90
23114;DHT22;11726;50.122;8.832;2024-01-15T03:20:37;-1.10;99.90
23114;DHT22;11726;50.122;8.832;2024-01-15T03:23:04;-1.10;99.90
23114;DHT22;11726;50.122;8.832;2024-01-15T03:25:30;-1.20;99.90
23114;DHT22;11726;50.122;8.832;2024-01-15T03:27:57;-1.20;99.90
23114;DHT22;11726;50.122;8.832;2024-01-15T03:30:23;-1.20;99.90
23114;DHT22;11726;50.122;8.832;2024-01-15T03:32:50;-1.20;99.90
23114;DHT22;11726;50.122;8.832;2024-01-15T03:35:17;-1.20;99.90
23114;DHT22;11726;50.122;8.832;2024-01-15T03:37:53;-1.20;99.90
23114;DHT22;11726;50.122;8.832;2024-01-15T03:40:19;-1.30;99.90
23114;DHT22;11726;50.122;8.832;2024-01-15T03:42:49;-1.30;99.90
23114;DHT22;11726;50.122;8.832;2024-01-15T03:45:16;-1.20;99.90
23114;DHT22;11726;50.122;8.832;2024-01-15T03:47:43;-1.20;99.90
23114;DHT22;11726;50.122;8.832;2024-01-15T03:50:09;-1.20;99.90
23114;DHT22;11726;50.122;8.832;2024-01-15T03:52:36;-1.20;99.90
23114;DHT22;11726;50.122;8.832;2024-01-15T03:55:04;-1.20;99.90
23114;DHT22;11726;50.122;8.832;2024-01-15T03:57:31;-1.20;99.90
23114;DHT22;11726;50.122;8.832;2024-01-15T03:59:57;-1.20;99.90
23114;DHT22;11726;50.122;8.832;2024-01-15T04:02:24;-1.20;99.90
23114;DHT22;11726;50.122;8.832;2024-01-15T04:04:51;-1.10;99.90
23114;DHT22;11726;50.122;8.832;2024-01-15T04:07:17;-1.10;99.90
23114;DHT22;11726;50.122;8.832;2024-01-15T04:09:44;-1.10;99.90
23114;DHT22;11726;50.122;8.832;2024-01-15T04:12:11;-1.10;99.90
23114;DHT22;11726;50.122;8.832;2024-01-15T04:14:38;-1.20;99.90
23114;DHT22;11726;50.122;8.832;2024-01-15T04:17:04;-1.20;99.90
23114;DHT22;11726;50.122;8.832;2024-01-15T04:19:31;-1.10;99.90
23114;DHT22;11726;50.122;8.832;2024-01-15T04:21:58;-1.20;99.90
23114;DHT22;11726;50.122;8.832;2024-01-15T04:24:24;-1.20;99.90
23114;DHT22;11726;50.122;8.832;2024-01-15T04:26:51;-1.20;99.90
23114;DHT22;11726;50.122;8.832;2024-01-15T04:29:18;-1.20;99.90
23114;DHT22;11726;50.122;8.832;2024-01-15T04:31:44;-1.20;99.90
23114;DHT22;11726;50.122;8.832;2024-01-15T04:34:11;-1.20;99.90
23114;DHT22;11726;50.122;8.832;2024-01-15T04:36:39;-1.20;99.90
23114;DHT22;11726;50.122;8.832;2024-01-15T04:39:07;-1.20;99.90
23114;DHT22;11726;50.122;8.832;2024-01-15T04:41:34;-1.10;99.90
23114;DHT22;11726;50.122;8.832;2024-01-15T04:44:01;-1.10;99.90
23114;DHT22;11726;50.122;8.832;2024-01-15T04:46:28;-1.10;99.90
23114;DHT22;11726;50.122;8.832;2024-01-15T04:48:55;-1.10;99.90
23114;DHT22;11726;50.122;8.832;2024-01-15T04:51:22;-1.10;99.90
23114;DHT22;11726;50.122;8.832;2024-01-15T04:53:49;-1.10;99.90
23114;DHT22;11726;50.122;8.832;2024-01-15T04:56:16;-1.10;99.90
23114;DHT22;11726;50.122;8.832;2024-01-15T04:58:43;-1.00;99.90
23114;DHT22;11726;50.122;8.832;2024-01-15T05:01:09;-1.00;99.90
23114;DHT22;11726;50.122;8.832;2024-01-15T05:03:36;-1.00;99.90
23114;DHT22;11726;50.122;8.832;2024-01-15T05:06:04;-1.00;99.90
23114;DHT22;11726;50.122;8.832;2024-01-15T05:08:31;-1.00;99.90
23114;DHT22;11726;50.122;8.832;2024-01-15T05:10:57;-1.00;99.90
23114;DHT22;11726;50.122;8.832;2024-01-15T05:13:24;-1.00;99.90
23114;DHT22;11726;50.122;8.832;2024-01-15T05:15:51;-1.00;99.90
23114;DHT22;11726;50.122;8.832;2024-01-15T05:18:17;-1.00;99.90
23114;DHT22;11726;50.122;8.832;2024-01-15T05:20:45;-1.00;99.90
23114;DHT22;11726;50.122;8.832;2024-01-15T05:23:11;-0.90;99.90
23114;DHT22;11726;50.122;8.832;2024-01-15T05:25:38;-0.90;99.90
23114;DHT22;11726;50.122;8.832;2024-01-15T05:28:05;-0.90;99.90
23114;DHT22;11726;50.122;8.832;2024-01-15T05:30:32;-1.00;99.90
23114;DHT22;11726;50.122;8.832;2024-01-15T05:32:59;-0.90;99.90
23114;DHT22;11726;50.122;8.832;2024-01-15T05:35:27;-0.90;99.90
23114;DHT22;11726;50.122;8.832;2024-01-15T05:37:53;-0.90;99.90
23114;DHT22;11726;50.122;8.832;2024-01-15T05:40:20;-0.90;99.90
23114;DHT22;11726;50.122;8.832;2024-01-15T05:42:47;-0.90;99.90
23114;DHT22;11726;50.122;8.832;2024-01-15T05:45:14;-0.80;99.90
23114;DHT22;11726;50.122;8.832;2024-01-15T05:47:41;-0.90;99.90
23114;DHT22;11726;50.122;8.832;2024-01-15T05:50:08;-0.90;99.90
23114;DHT22;11726;50.122;8.832;2024-01-15T05:52:35;-0.90;99.90
23114;DHT22;11726;50.122;8.832;2024-01-15T05:55:02;-0.80;99.90
23114;DHT22;11726;50.122;8.832;2024-01-15T05:57:28;-0.90;99.90
23114;DHT22;11726;50.122;8.832;2024-01-15T05:59:55;-0.90;99.90
23114;DHT22;11726;50.122;8.832;2024-01-15T06:02:22;-1.00;99.90
23114;DHT22;11726;50.122;8.832;2024-01-15T06:04:49;-1.00;99.90
23114;DHT22;11726;50.122;8.832;2024-01-15T06:07:15;-0.90;99.90
23114;DHT22;11726;50.122;8.832;2024-01-15T06:09:42;-0.90;99.90
23114;DHT22;11726;50.122;8.832;2024-01-15T06:12:09;-0.90;99.90
23114;DHT22;11726;50.122;8.832;2024-01-15T06:14:36;-0.80;99.90
23114;DHT22;11726;50.122;8.832;2024-01-15T06:17:03;-0.80;99.90
23114;DHT22;11726;50.122;8.832;2024-01-15T06:19:30;-0.80;99.90
23114;DHT22;11726;50.122;8.832;2024-01-15T06:21:57;-0.80;99.90
23114;DHT22;11726;50.122;8.832;2024-01-15T06:24:24;-0.80;99.90
23114;DHT22;11726;50.122;8.832;2024-01-15T06:26:51;-0.80;99.90
23114;DHT22;11726;50.122;8.832;2024-01-15T06:29:18;-0.80;99.90
23114;DHT22;11726;50.122;8.832;2024-01-15T06:31:44;-0.80;99.90
23114;DHT22;11726;50.122;8.832;2024-01-15T06:34:11;-0.80;99.90
23114;DHT22;11726;50.122;8.832;2024-01-15T06:36:38;-0.80;99.90
23114;DHT22;11726;50.122;8.832;2024-01-15T06:39:05;-0.80;99.90
23114;DHT22;11726;50.122;8.832;2024-01-15T06:41:32;-0.80;99.90
23114;DHT22;11726;50.122;8.832;2024-01-15T06:43:58;-0.80;99.90
23114;DHT22;11726;50.122;8.832;2024-01-15T06:46:25;-0.80;99.90
23114;DHT22;11726;50.122;8.832;2024-01-15T06:48:51;-0.80;99.90
23114;DHT22;11726;50.122;8.832;2024-01-15T06:51:18;-0.80;99.90
23114;DHT22;11726;50.122;8.832;2024-01-15T06:53:45;-0.80;99.90
23114;DHT22;11726;50.122;8.832;2024-01-15T06:56:11;-0.80;99.90
23114;DHT22;11726;50.122;8.832;2024-01-15T06:58:38;-0.80;99.90
23114;DHT22;11726;50.122;8.832;2024-01-15T07:01:05;-0.80;99.90
23114;DHT22;11726;50.122;8.832;2024-01-15T07:03:32;-0.80;99.90
23114;DHT22;11726;50.122;8.832;2024-01-15T07:05:59;-0.80;99.90
23114;DHT22;11726;50.122;8.832;2024-01-15T07:08:26;-0.80;99.90
23114;DHT22;11726;50.122;8.832;2024-01-15T07:10:52;-0.80;99.90
23114;DHT22;11726;50.122;8.832;2024-01-15T07:13:19;-0.80;99.90
23114;DHT22;11726;50.122;8.832;2024-01-15T07:15:46;-0.80;99.90
23114;DHT22;11726;50.122;8.832;2024-01-15T07:18:13;-0.80;99.90
23114;DHT22;11726;50.122;8.832;2024-01-15T07:20:39;-0.80;99.90
23114;DHT22;11726;50.122;8.832;2024-01-15T07:23:06;-0.80;99.90
23114;DHT22;11726;50.122;8.832;2024-01-15T07:25:33;-0.80;99.90
23114;DHT22;11726;50.122;8.832;2024-01-15T07:28:00;-0.70;99.90
23114;DHT22;11726;50.122;8.832;2024-01-15T07:30:27;-0.70;99.90
23114;DHT22;11726;50.122;8.832;2024-01-15T07:32:54;-0.70;99.90
23114;DHT22;11726;50.122;8.832;2024-01-15T07:35:21;-0.70;99.90
23114;DHT22;11726;50.122;8.832;2024-01-15T07:37:47;-0.70;99.90
23114;DHT22;11726;50.122;8.832;2024-01-15T07:40:14;-0.70;99.90
23114;DHT22;11726;50.122;8.832;2024-01-15T07:42:41;-0.70;99.90
23114;DHT22;11726;50.122;8.832;2024-01-15T07:45:10;-0.60;99.90
23114;DHT22;11726;50.122;8.832;2024-01-15T07:47:37;-0.60;99.90
23114;DHT22;11726;50.122;8.832;2024-01-15T07:50:04;-0.60;99.90
23114;DHT22;11726;50.122;8.832;2024-01-15T07:52:32;-0.50;99.90
23114;DHT22;11726;50.122;8.832;2024-01-15T07:54:59;-0.50;99.90
23114;DHT22;11726;50.122;8.832;2024-01-15T07:57:30;-0.50;99.90
23114;DHT22;11726;50.122;8.832;2024-01-15T07:59:57;-0.40;99.90
23114;DHT22;11726;50.122;8.832;2024-01-15T08:02:24;-0.40;99.90
23114;DHT22;11726;50.122;8.832;2024-01-15T08:04:50;-0.30;99.90
23114;DHT22;11726;50.122;8.832;2024-01-15T08:07:17;-0.40;99.90
23114;DHT22;11726;50.122;8.832;2024-01-15T08:09:44;-0.30;99.90
23114;DHT22;11726;50.122;8.832;2024-01-15T08:12:13;-0.30;99.90
23114;DHT22;11726;50.122;8.832;2024-01-15T08:14:40;-0.30;99.90
23114;DHT22;11726;50.122;8.832;2024-01-15T08:17:06;-0.20;99.90
23114;DHT22;11726;50.122;8.832;2024-01-15T08:19:33;-0.30;99.90
23114;DHT22;11726;50.122;8.832;2024-01-15T08:22:00;-0.40;99.90
23114;DHT22;11726;50.122;8.832;2024-01-15T08:24:27;-0.40;99.90
23114;DHT22;11726;50.122;8.832;2024-01-15T08:26:54;-0.30;99.90
23114;DHT22;11726;50.122;8.832;2024-01-15T08:29:21;-0.30;99.90
23114;DHT22;11726;50.122;8.832;2024-01-15T08:31:48;-0.30;99.90
23114;DHT22;11726;50.122;8.832;2024-01-15T08:34:15;-0.30;99.90
23114;DHT22;11726;50.122;8.832;2024-01-15T08:36:42;-0.20;99.90
23114;DHT22;11726;50.122;8.832;2024-01-15T08:39:09;-0.20;99.90
23114;DHT22;11726;50.122;8.832;2024-01-15T08:41:36;-0.20;99.90
23114;DHT22;11726;50.122;8.832;2024-01-15T08:44:02;-0.10;99.90
23114;DHT22;11726;50.122;8.832;2024-01-15T08:46:29;-0.10;99.90
23114;DHT22;11726;50.122;8.832;2024-01-15T08:48:56;0.00;99.90
23114;DHT22;11726;50.122;8.832;2024-01-15T08:51:23;-0.10;99.90
23114;DHT22;11726;50.122;8.832;2024-01-15T08:53:50;-0.10;99.90
23114;DHT22;11726;50.122;8.832;2024-01-15T08:56:16;0.00;99.90
23114;DHT22;11726;50.122;8.832;2024-01-15T08:58:43;0.00;99.90
23114;DHT22;11726;50.122;8.832;2024-01-15T09:01:10;0.00;99.90
23114;DHT22;11726;50.122;8.832;2024-01-15T09:03:36;0.10;99.90
23114;DHT22;11726;50.122;8.832;2024-01-15T09:06:03;0.10;99.90
23114;DHT22;11726;50.122;8.832;2024-01-15T09:08:30;0.10;99.90
23114;DHT22;11726;50.122;8.832;2024-01-15T09:10:57;0.10;99.90
23114;DHT22;11726;50.122;8.832;2024-01-15T09:13:24;0.20;99.90
23114;DHT22;11726;50.122;8.832;2024-01-15T09:15:51;0.20;99.90
23114;DHT22;11726;50.122;8.832;2024-01-15T09:18:18;0.20;99.90
23114;DHT22;11726;50.122;8.832;2024-01-15T09:20:45;0.10;99.90
23114;DHT22;11726;50.122;8.832;2024-01-15T09:23:11;0.20;99.90
23114;DHT22;11726;50.122;8.832;2024-01-15T09:25:38;0.20;99.90
23114;DHT22;11726;50.122;8.832;2024-01-15T09:28:05;0.20;99.90
23114;DHT22;11726;50.122;8.832;2024-01-15T09:30:32;0.20;99.90
23114;DHT22;11726;50.122;8.832;2024-01-15T09:32:59;0.20;99.90
23114;DHT22;11726;50.122;8.832;2024-01-15T09:35:26;0.30;99.90
23114;DHT22;11726;50.122;8.832;2024-01-15T09:37:52;0.40;99.90
23114;DHT22;11726;50.122;8.832;2024-01-15T09:40:20;0.50;99.90
23114;DHT22;11726;50.122;8.832;2024-01-15T09:42:47;0.60;99.90
23114;DHT22;11726;50.122;8.832;2024-01-15T09:45:14;0.70;99.90
23114;DHT22;11726;50.122;8.832;2024-01-15T09:47:41;0.90;99.90
23114;DHT22;11726;50.122;8.832;2024-01-15T09:50:13;0.90;99.90
23114;DHT22;11726;50.122;8.832;2024-01-15T09:52:43;1.00;99.90
23114;DHT22;11726;50.122;8.832;2024-01-15T09:55:11;1.10;99.90
23114;DHT22;11726;50.122;8.832;2024-01-15T09:57:39;1.10;99.90
23114;DHT22;11726;50.122;8.832;2024-01-15T10:00:07;1.10;99.90
23114;DHT22;11726;50.122;8.832;2024-01-15T10:02:37;1.20;99.90
23114;DHT22;11726;50.122;8.832;2024-01-15T10:05:04;1.30;99.90
23114;DHT22;11726;50.122;8.832;2024-01-15T10:07:35;1.40;99.90
23114;DHT22;11726;50.122;8.832;2024-01-15T10:10:02;1.50;99.90
23114;DHT22;11726;50.122;8.832;2024-01-15T10:12:30;1.40;99.90
23114;DHT22;11726;50.122;8.832;2024-01-15T10:14:57;1.40;99.90
23114;DHT22;11726;50.122;8.832;2024-01-15T10:17:24;1.50;99.90
23114;DHT22;11726;50.122;8.832;2024-01-15T10:19:53;1.50;99.90
23114;DHT22;11726;50.122;8.832;2024-01-15T10:22:20;1.50;99.90
23114;DHT22;11726;50.122;8.832;2024-01-15T10:24:47;1.40;99.90
23114;DHT22;11726;50.122;8.832;2024-01-15T10:27:15;1.50;99.90
23114;DHT22;11726;50.122;8.832;2024-01-15T10:29:42;1.50;99.90
23114;DHT22;11726;50.122;8.832;2024-01-15T10:32:09;1.60;99.90
23114;DHT22;11726;50.122;8.832;2024-01-15T10:34:42;1.60;99.90
23114;DHT22;11726;50.122;8.832;2024-01-15T10:37:12;1.60;99.90
23114;DHT22;11726;50.122;8.832;2024-01-15T10:39:38;1.70;99.90
23114;DHT22;11726;50.122;8.832;2024-01-15T10:42:06;1.80;99.90
23114;DHT22;11726;50.122;8.832;2024-01-15T10:44:34;1.80;99.90
23114;DHT22;11726;50.122;8.832;2024-01-15T10:47:01;1.70;99.90
23114;DHT22;11726;50.122;8.832;2024-01-15T10:49:27;1.80;99.90
23114;DHT22;11726;50.122;8.832;2024-01-15T10:52:00;1.80;99.90
23114;DHT22;11726;50.122;8.832;2024-01-15T10:54:28;1.70;99.90
23114;DHT22;11726;50.122;8.832;2024-01-15T10:56:59;1.60;99.90
23114;DHT22;11726;50.122;8.832;2024-01-15T10:59:25;1.70;99.90
23114;DHT22;11726;50.122;8.832;2024-01-15T11:01:53;1.70;99.90
23114;DHT22;11726;50.122;8.832;2024-01-15T11:04:21;1.80;99.90
23114;DHT22;11726;50.122;8.832;2024-01-15T11:06:51;1.90;99.90
23114;DHT22;11726;50.122;8.832;2024-01-15T11:09:20;1.80;99.90
23114;DHT22;11726;50.122;8.832;2024-01-15T11:11:47;2.00;99.90
23114;DHT22;11726;50.122;8.832;2024-01-15T11:15:01;2.10;99.90
23114;DHT22;11726;50.122;8.832;2024-01-15T11:17:57;2.20;99.90
23114;DHT22;11726;50.122;8.832;2024-01-15T11:20:25;2.20;99.90
23114;DHT22;11726;50.122;8.832;2024-01-15T11:22:52;2.10;99.90
23114;DHT22;11726;50.122;8.832;2024-01-15T11:25:19;2.20;99.90
23114;DHT22;11726;50.122;8.832;2024-01-15T11:27:47;2.40;99.90
23114;DHT22;11726;50.122;8.832;2024-01-15T11:30:19;2.80;99.90
23114;DHT22;11726;50.122;8.832;2024-01-15T11:32:48;3.00;99.90
23114;DHT22;11726;50.122;8.832;2024-01-15T11:35:15;2.90;99.90
23114;DHT22;11726;50.122;8.832;2024-01-15T11:40:19;2.80;99.90
23114;DHT22;11726;50.122;8.832;2024-01-15T11:42:47;2.90;99.90
23114;DHT22;11726;50.122;8.832;2024-01-15T11:45:19;2.90;99.90
23114;DHT22;11726;50.122;8.832;2024-01-15T11:48:11;3.10;99.90
23114;DHT22;11726;50.122;8.832;2024-01-15T11:50:47;3.20;99.90
23114;DHT22;11726;50.122;8.832;2024-01-15T11:53:37;2.90;99.90
23114;DHT22;11726;50.122;8.832;2024-01-15T11:56:15;2.70;99.90
23114;DHT22;11726;50.122;8.832;2024-01-15T11:58:43;2.70;99.90
23114;DHT22;11726;50.122;8.832;2024-01-15T12:01:11;2.70;99.90
23114;DHT22;11726;50.122;8.832;2024-01-15T12:03:38;2.70;99.90
23114;DHT22;11726;50.122;8.832;2024-01-15T12:06:06;2.70;99.90
23114;DHT22;11726;50.122;8.832;2024-01-15T12:08:33;2.80;99.90
23114;DHT22;11726;50.122;8.832;2024-01-15T12:11:00;2.80;99.90
23114;DHT22;11726;50.122;8.832;2024-01-15T12:13:27;2.70;99.90
23114;DHT22;11726;50.122;8.832;2024-01-15T12:15:54;2.70;99.90
23114;DHT22;11726;50.122;8.832;2024-01-15T12:18:21;2.40;99.90
23114;DHT22;11726;50.122;8.832;2024-01-15T12:20:48;2.30;99.90
23114;DHT22;11726;50.122;8.832;2024-01-15T12:23:15;2.30;99.90
23114;DHT22;11726;50.122;8.832;2024-01-15T12:25:43;2.20;99.90
23114;DHT22;11726;50.122;8.832;2024-01-15T12:28:09;2.10;99.90
23114;DHT22;11726;50.122;8.832;2024-01-15T12:30:37;2.00;99.90
23114;DHT22;11726;50.122;8.832;2024-01-15T12:33:05;2.00;99.90
23114;DHT22;11726;50.122;8.832;2024-01-15T12:35:35;2.00;99.90
23114;DHT22;11726;50.122;8.832;2024-01-15T12:38:02;1.90;99.90
23114;DHT22;11726;50.122;8.832;2024-01-15T12:40:31;1.90;99.90
23114;DHT22;11726;50.122;8.832;2024-01-15T12:42:59;1.90;99.90
23114;DHT22;11726;50.122;8.832;2024-01-15T12:45:26;2.00;99.90
23114;DHT22;11726;50.122;8.832;2024-01-15T12:47:53;1.90;99.90
23114;DHT22;11726;50.122;8.832;2024-01-15T12:50:24;1.90;99.90
23114;DHT22;11726;50.122;8.832;2024-01-15T12:52:51;2.00;99.90
23114;DHT22;11726;50.122;8.832;2024-01-15T12:55:18;2.00;99.90
23114;DHT22;11726;50.122;8.832;2024-01-15T12:57:45;2.00;99.90
23114;DHT22;11726;50.122;8.832;2024-01-15T13:00:13;2.00;99.90
23114;DHT22;11726;50.122;8.832;2024-01-15T13:02:41;2.00;99.90
23114;DHT22;11726;50.122;8.832;2024-01-15T13:05:10;1.90;99.90
23114;DHT22;11726;50.122;8.832;2024-01-15T13:07:41;2.00;99.90
23114;DHT22;11726;50.122;8.832;2024-01-15T13:10:08;2.00;99.90
23114;DHT22;11726;50.122;8.832;2024-01-15T13:12:37;2.10;99.90
23114;DHT22;11726;50.122;8.832;2024-01-15T13:15:04;2.10;99.90
23114;DHT22;11726;50.122;8.832;2024-01-15T13:17:31;2.10;99.90
23114;DHT22;11726;50.122;8.832;2024-01-15T13:19:58;2.20;99.90
23114;DHT22;11726;50.122;8.832;2024-01-15T13:22:26;2.20;99.90
23114;DHT22;11726;50.122;8.832;2024-01-15T13:24:58;2.30;99.90
23114;DHT22;11726;50.122;8.832;2024-01-15T13:27:25;2.30;99.90
23114;DHT22;11726;50.122;8.832;2024-01-15T13:29:52;2.40;99.90
23114;DHT22;11726;50.122;8.832;2024-01-15T13:32:24;2.50;99.90
23114;DHT22;11726;50.122;8.832;2024-01-15T13:34:55;2.60;99.90
23114;DHT22;11726;50.122;8.832;2024-01-15T13:37:23;2.60;99.90
23114;DHT22;11726;50.122;8.832;2024-01-15T13:39:51;2.70;99.90
23114;DHT22;11726;50.122;8.832;2024-01-15T13:42:19;2.70;99.90
23114;DHT22;11726;50.122;8.832;2024-01-15T13:44:48;2.70;99.90
23114;DHT22;11726;50.122;8.832;2024-01-15T13:47:15;2.70;99.90
23114;DHT22;11726;50.122;8.832;2024-01-15T13:49:41;2.60;99.90
23114;DHT22;11726;50.122;8.832;2024-01-15T13:52:08;2.70;99.90
23114;DHT22;11726;50.122;8.832;2024-01-15T13:54:35;2.70;99.90
23114;DHT22;11726;50.122;8.832;2024-01-15T13:57:15;2.70;99.90
23114;DHT22;11726;50.122;8.832;2024-01-15T13:59:42;2.70;99.90
23114;DHT22;11726;50.122;8.832;2024-01-15T14:02:09;2.70;99.90
23114;DHT22;11726;50.122;8.832;2024-01-15T14:04:37;2.80;99.90
23114;DHT22;11726;50.122;8.832;2024-01-15T14:07:04;2.80;99.90
23114;DHT22;11726;50.122;8.832;2024-01-15T14:09:31;2.80;99.90
23114;DHT22;11726;50.122;8.832;2024-01-15T14:11:58;2.70;99.90
23114;DHT22;11726;50.122;8.832;2024-01-15T14:14:25;2.80;99.90
23114;DHT22;11726;50.122;8.832;2024-01-15T14:16:52;2.80;99.90
23114;DHT22;11726;50.122;8.832;2024-01-15T14:19:18;2.80;99.90
23114;DHT22;11726;50.122;8.832;2024-01-15T14:21:45;2.80;99.90
23114;DHT22;11726;50.122;8.832;2024-01-15T14:24:12;2.90;99.90
23114;DHT22;11726;50.122;8.832;2024-01-15T14:26:39;2.90;99.90
23114;DHT22;11726;50.122;8.832;2024-01-15T14:29:06;2.80;99.90
23114;DHT22;11726;50.122;8.832;2024-01-15T14:31:33;2.90;99.90
23114;DHT22;11726;50.122;8.832;2024-01-15T14:34:01;2.80;99.90
23114;DHT22;11726;50.122;8.832;2024-01-15T14:36:29;2.90;99.90
23114;DHT22;11726;50.122;8.832;2024-01-15T14:38:56;2.90;99.90
23114;DHT22;11726;50.122;8.832;2024-01-15T14:41:23;2.80;99.90
23114;DHT22;11726;50.122;8.832;2024-01-15T14:43:50;2.90;99.90
23114;DHT22;11726;50.122;8.832;2024-01-15T14:46:17;2.90;99.90
23114;DHT22;11726;50.122;8.832;2024-01-15T14:48:43;2.90;99.90
23114;DHT22;11726;50.122;8.832;2024-01-15T14:51:11;2.90;99.90
23114;DHT22;11726;50.122;8.832;2024-01-15T14:53:38;3.00;99.90
23114;DHT22;11726;50.122;8.832;2024-01-15T14:56:05;3.10;99.90
23114;DHT22;11726;50.122;8.832;2024-01-15T14:58:32;3.20;99.90
23114;DHT22;11726;50.122;8.832;2024-01-15T15:00:59;3.20;99.90
23114;DHT22;11726;50.122;8.832;2024-01-15T15:03:26;3.20;99.90
23114;DHT22;11726;50.122;8.832;2024-01-15T15:05:53;3.20;99.90
23114;DHT22;11726;50.122;8.832;2024-01-15T15:08:20;3.20;99.90
23114;DHT22;11726;50.122;8.832;2024-01-15T15:10:47;3.10;99.90
23114;DHT22;11726;50.122;8.832;2024-01-15T15:13:13;3.10;99.90
23114;DHT22;11726;50.122;8.832;2024-01-15T15:15:41;3.00;99.90
23114;DHT22;11726;50.122;8.832;2024-01-15T15:18:08;3.10;99.90
23114;DHT22;11726;50.122;8.832;2024-01-15T15:20:34;3.00;99.90
23114;DHT22;11726;50.122;8.832;2024-01-15T15:23:01;3.00;99.90
23114;DHT22;11726;50.122;8.832;2024-01-15T15:25:29;2.90;99.90
23114;DHT22;11726;50.122;8.832;2024-01-15T15:27:56;2.90;99.90
23114;DHT22;11726;50.122;8.832;2024-01-15T15:30:23;2.90;99.90
23114;DHT22;11726;50.122;8.832;2024-01-15T15:32:49;2.90;99.90
23114;DHT22;11726;50.122;8.832;2024-01-15T15:35:16;2.80;99.90
23114;DHT22;11726;50.122;8.832;2024-01-15T15:37:43;2.80;99.90
23114;DHT22;11726;50.122;8.832;2024-01-15T15:40:10;2.80;99.90
23114;DHT22;11726;50.122;8.832;2024-01-15T15:42:37;2.70;99.90